BZRK1: S Cottonwood River nr Bazarr KS

                                SHEF ID:       BZRK1     SF COTTONWOOD R NR BAZAAR, KS
STATION TYPE:

PRECIP PRECIP(A) STAGE RIV-FLOW BAT-LOAD
in in ft cfs volt
Ccp-Rev Ccp-Rev Ccp-Rev Ccp-Rev Ccp-Rev
(America/Chicago)
11/23 00:00 0.00 ---- 9.59 327 12.08
11/23 01:00 0.00 ---- 9.54 315 12.07
11/23 02:00 0.00 ---- 9.49 302 12.06
11/23 03:00 0.00 ---- 9.46 297 12.04
11/23 04:00 0.00 ---- 9.43 292 12.04
11/23 05:00 0.00 ---- 9.40 287 12.02
11/23 06:00 0.00 ---- 9.36 281 12.01
11/23 07:00 0.00 ---- 9.34 277 12.00
11/23 08:00 0.00 ---- 9.33 276 12.07
11/23 09:00 0.00 ---- 9.29 270 12.80
11/23 10:00 0.00 ---- 9.27 266 13.45
11/23 11:00 0.00 ---- 9.26 265 13.70
11/23 12:00 0.00 ---- 9.22 259 13.57
11/23 13:00 0.00 ---- 9.21 257 13.53
11/23 14:00 0.00 ---- 9.19 254 13.52
11/23 15:00 0.00 ---- 9.16 250 13.51
11/23 16:00 0.00 ---- 9.15 248 13.62
11/23 17:00 0.00 ---- 9.14 247 12.95
11/23 18:00 0.00 ---- 9.12 244 12.27
11/23 19:00 0.00 ---- 9.12 244 12.19
11/23 20:00 0.00 ---- 9.09 239 12.16
11/23 21:00 0.00 ---- 9.07 236 12.13
11/23 22:00 0.00 ---- 9.07 236 12.12
11/23 23:00 0.01 ---- 9.06 235 12.07
Data processed at Mon 24Nov2025 05:44 GMT

NOTICE: If you are parsing this page

Please convert to using our Data API. Starting January 1st, 2026 we will be migrating to: https://water.usace.army.mil with modern pages rendered in JavaScript. You will no longer be able to scrape this page! CWMSDataAPI (CDA)

Timeseries IDs (TSIDs)

TSIDs used from left to right in the data table
BAZA.Precip-Inc.Total.1Hour.1Hour.Ccp-Rev
BAZA.Precip-Inc Alt.Total.1Hour.1Hour.Ccp-Rev
BAZA.Stage.Inst.1Hour.0.Ccp-Rev
BAZA.Flow.Inst.1Hour.0.Ccp-Rev
BAZA.Volt-Battery Load.Inst.1Hour.0.Ccp-Rev

                            

All information presented herein is the property of the government of the United States of America and may be revised or deleted at any time without prior notice. Dissemination of this information without the expressed written consent of the Public Affairs Office, Tulsa District U.S. Army Corps of Engineers is strictly prohibited. These data are gathered electronically and, as presented, have NOT undergone any form of quality control. These data are NOT guaranteed to be valid or correct.